createdAt,value
2018-11-25T00:00:03.182Z,19.07
2018-11-25T00:01:03.032Z,19.06
2018-11-25T00:02:02.973Z,19.05
2018-11-25T00:03:02.821Z,19.05
2018-11-25T00:04:03.043Z,19.03
2018-11-25T00:05:02.724Z,19.05
2018-11-25T00:06:02.859Z,19.02
2018-11-25T00:07:02.875Z,19.01
2018-11-25T00:08:02.493Z,19.01
2018-11-25T00:09:02.648Z,19.01
2018-11-25T00:10:02.807Z,19.01
2018-11-25T00:11:02.893Z,18.99
2018-11-25T00:12:02.871Z,19
2018-11-25T00:13:03.254Z,19
2018-11-25T00:14:03.092Z,18.98
2018-11-25T00:15:02.823Z,18.99
2018-11-25T00:16:03.002Z,19
2018-11-25T00:17:02.761Z,18.96
2018-11-25T00:18:02.855Z,18.97
2018-11-25T00:19:02.899Z,18.98
2018-11-25T00:20:02.437Z,18.96
2018-11-25T00:21:02.764Z,18.98
2018-11-25T00:22:03.084Z,18.96
2018-11-25T00:23:02.684Z,18.94
2018-11-25T00:24:02.976Z,18.95
2018-11-25T00:25:02.878Z,18.96
2018-11-25T00:26:02.495Z,18.94
2018-11-25T00:27:02.870Z,18.95
2018-11-25T00:28:02.877Z,18.94
2018-11-25T00:29:02.994Z,18.91
2018-11-25T00:30:02.728Z,18.94
2018-11-25T00:31:09.930Z,18.93
2018-11-25T00:32:02.847Z,18.94
2018-11-25T00:33:02.379Z,18.91
2018-11-25T00:34:02.818Z,18.92
2018-11-25T00:35:02.488Z,18.89
2018-11-25T00:36:02.964Z,18.92
2018-11-25T00:37:02.768Z,18.89
2018-11-25T00:38:02.804Z,18.88
2018-11-25T00:39:02.917Z,18.89
2018-11-25T00:40:02.483Z,18.88
2018-11-25T00:41:02.697Z,18.88
2018-11-25T00:42:02.705Z,18.86
2018-11-25T00:43:02.665Z,18.87
2018-11-25T00:44:02.736Z,18.85
2018-11-25T00:45:02.911Z,18.87
2018-11-25T00:46:03.041Z,18.85
2018-11-25T00:47:02.830Z,18.85
2018-11-25T00:48:02.848Z,18.85
2018-11-25T00:49:03.780Z,18.85
2018-11-25T00:50:02.735Z,18.85
2018-11-25T00:51:02.587Z,18.84
2018-11-25T00:52:02.663Z,18.84
2018-11-25T00:53:02.619Z,18.84
2018-11-25T00:54:02.811Z,18.85
2018-11-25T00:55:02.965Z,18.84
2018-11-25T00:56:02.739Z,18.82
2018-11-25T00:57:02.675Z,18.84
2018-11-25T00:58:02.684Z,18.84
2018-11-25T00:59:02.825Z,18.82
2018-11-25T01:00:02.496Z,18.82
2018-11-25T01:01:02.875Z,18.81
2018-11-25T01:02:03.019Z,18.8
2018-11-25T01:03:02.539Z,18.81
2018-11-25T01:04:02.672Z,18.82
2018-11-25T01:05:02.772Z,18.79
2018-11-25T01:06:02.713Z,18.82
2018-11-25T01:07:02.435Z,18.79
2018-11-25T01:08:03.087Z,18.79
2018-11-25T01:09:02.378Z,18.77
2018-11-25T01:10:02.662Z,18.79
2018-11-25T01:11:02.510Z,18.78
2018-11-25T01:12:02.707Z,18.79
2018-11-25T01:13:02.694Z,18.74
2018-11-25T01:14:02.893Z,18.77
2018-11-25T01:15:02.695Z,18.77
2018-11-25T01:16:02.686Z,18.76
2018-11-25T01:17:02.666Z,18.77
2018-11-25T01:18:02.460Z,18.74
2018-11-25T01:19:02.391Z,18.74
2018-11-25T01:20:02.463Z,18.74
2018-11-25T01:21:02.565Z,18.73
2018-11-25T01:22:02.705Z,18.76
2018-11-25T01:23:02.493Z,18.72
2018-11-25T01:24:03.051Z,18.73
2018-11-25T01:25:02.668Z,18.72
2018-11-25T01:26:02.737Z,18.73
2018-11-25T01:27:02.624Z,18.73
2018-11-25T01:28:02.524Z,18.72
2018-11-25T01:29:02.886Z,18.71
2018-11-25T01:30:02.842Z,18.7
2018-11-25T01:31:03.336Z,18.72
2018-11-25T01:32:02.543Z,18.7
2018-11-25T01:33:02.631Z,18.69
2018-11-25T01:34:02.599Z,18.7
2018-11-25T01:35:02.627Z,18.7
2018-11-25T01:36:02.469Z,18.69
2018-11-25T01:37:03.100Z,18.7
2018-11-25T01:38:02.499Z,18.68
2018-11-25T01:39:02.862Z,18.69
2018-11-25T01:40:02.896Z,18.69
2018-11-25T01:41:02.744Z,18.68
2018-11-25T01:42:02.901Z,18.68
2018-11-25T01:43:02.449Z,18.66
2018-11-25T01:44:02.920Z,18.68
2018-11-25T01:45:02.603Z,18.66
2018-11-25T01:46:03.163Z,18.66
2018-11-25T01:47:02.637Z,18.68
2018-11-25T01:48:02.561Z,18.64
2018-11-25T01:49:02.856Z,18.66
2018-11-25T01:50:02.557Z,18.66
2018-11-25T01:51:02.849Z,18.66
2018-11-25T01:52:02.415Z,18.65
2018-11-25T01:53:02.708Z,18.66
2018-11-25T01:54:02.854Z,18.65
2018-11-25T01:55:02.447Z,18.63
2018-11-25T01:56:02.719Z,18.65
2018-11-25T01:57:02.400Z,18.64
2018-11-25T01:58:02.940Z,18.62
2018-11-25T01:59:02.742Z,18.62
2018-11-25T02:00:02.929Z,18.62
2018-11-25T02:01:02.909Z,18.62
2018-11-25T02:02:02.558Z,18.63
2018-11-25T02:03:02.778Z,18.62
2018-11-25T02:04:02.813Z,18.62
2018-11-25T02:05:02.661Z,18.61
2018-11-25T02:06:02.574Z,18.61
2018-11-25T02:07:03.008Z,18.62
2018-11-25T02:08:02.865Z,18.59
2018-11-25T02:09:02.758Z,18.58
2018-11-25T02:10:02.391Z,18.59
2018-11-25T02:11:02.753Z,18.59
2018-11-25T02:12:02.470Z,18.57
2018-11-25T02:13:02.922Z,18.57
2018-11-25T02:14:02.371Z,18.59
2018-11-25T02:15:02.375Z,18.58
2018-11-25T02:16:02.700Z,18.57
2018-11-25T02:17:02.814Z,18.57
2018-11-25T02:18:02.617Z,18.57
2018-11-25T02:19:02.547Z,18.56
2018-11-25T02:20:02.804Z,18.57
2018-11-25T02:21:02.416Z,18.56
2018-11-25T02:22:02.524Z,18.56
2018-11-25T02:23:02.941Z,18.56
2018-11-25T02:24:02.724Z,18.56
2018-11-25T02:25:02.686Z,18.57
2018-11-25T02:26:02.482Z,18.56
2018-11-25T02:27:02.834Z,18.54
2018-11-25T02:28:03.028Z,18.54
2018-11-25T02:29:02.573Z,18.54
2018-11-25T02:30:02.897Z,18.53
2018-11-25T02:31:02.981Z,18.54
2018-11-25T02:32:02.743Z,18.54
2018-11-25T02:33:02.839Z,18.53
2018-11-25T02:34:02.776Z,18.55
2018-11-25T02:35:02.379Z,18.52
2018-11-25T02:36:02.847Z,18.52
2018-11-25T02:37:02.484Z,18.54
2018-11-25T02:38:02.954Z,18.5
2018-11-25T02:39:02.409Z,18.53
2018-11-25T02:40:02.614Z,18.5
2018-11-25T02:41:02.351Z,18.53
2018-11-25T02:42:02.598Z,18.52
2018-11-25T02:43:02.759Z,18.5
2018-11-25T02:44:02.556Z,18.49
2018-11-25T02:45:02.792Z,18.5
2018-11-25T02:46:02.413Z,18.5
2018-11-25T02:47:02.687Z,18.49
2018-11-25T02:48:03.504Z,18.49
2018-11-25T02:49:02.826Z,18.48
2018-11-25T02:50:02.426Z,18.48
2018-11-25T02:51:02.716Z,18.5
2018-11-25T02:52:02.604Z,18.48
2018-11-25T02:53:02.470Z,18.48
2018-11-25T02:54:02.687Z,18.47
2018-11-25T02:55:02.522Z,18.5
2018-11-25T02:56:02.668Z,18.47
2018-11-25T02:57:02.512Z,18.47
2018-11-25T02:58:02.840Z,18.48
2018-11-25T02:59:02.461Z,18.44
2018-11-25T03:00:02.528Z,18.47
2018-11-25T03:01:02.847Z,18.46
2018-11-25T03:02:02.999Z,18.47
2018-11-25T03:03:02.372Z,18.46
2018-11-25T03:04:02.460Z,18.43
2018-11-25T03:05:03.103Z,18.41
2018-11-25T03:06:02.467Z,18.44
2018-11-25T03:07:02.909Z,18.44
2018-11-25T03:08:02.731Z,18.43
2018-11-25T03:09:02.700Z,18.44
2018-11-25T03:10:02.507Z,18.41
2018-11-25T03:11:02.713Z,18.42
2018-11-25T03:12:02.776Z,18.4
2018-11-25T03:13:02.561Z,18.43
2018-11-25T03:14:03.242Z,18.43
2018-11-25T03:15:02.543Z,18.42
2018-11-25T03:16:02.777Z,18.42
2018-11-25T03:17:02.523Z,18.43
2018-11-25T03:18:02.699Z,18.42
2018-11-25T03:19:02.333Z,18.41
2018-11-25T03:20:02.590Z,18.41
2018-11-25T03:21:02.359Z,18.4
2018-11-25T03:22:02.422Z,18.42
2018-11-25T03:23:02.671Z,18.41
2018-11-25T03:24:03.077Z,18.41
2018-11-25T03:25:02.487Z,18.4
2018-11-25T03:26:02.396Z,18.41
2018-11-25T03:27:02.597Z,18.4
2018-11-25T03:28:02.621Z,18.39
2018-11-25T03:29:02.356Z,18.4
2018-11-25T03:30:02.650Z,18.4
2018-11-25T03:31:02.854Z,18.41
2018-11-25T03:32:02.590Z,18.38
2018-11-25T03:33:02.444Z,18.37
2018-11-25T03:34:02.801Z,18.4
2018-11-25T03:35:02.470Z,18.37
2018-11-25T03:36:02.592Z,18.39
2018-11-25T03:37:02.369Z,18.38
2018-11-25T03:38:02.800Z,18.39
2018-11-25T03:39:02.826Z,18.37
2018-11-25T03:40:02.427Z,18.37
2018-11-25T03:41:02.622Z,18.37
2018-11-25T03:42:02.501Z,18.35
2018-11-25T03:43:02.866Z,18.36
2018-11-25T03:44:02.364Z,18.37
2018-11-25T03:45:02.533Z,18.37
2018-11-25T03:46:02.439Z,18.35
2018-11-25T03:47:02.439Z,18.33
2018-11-25T03:48:02.659Z,18.36
2018-11-25T03:49:02.948Z,18.35
2018-11-25T03:50:03.131Z,18.34
2018-11-25T03:51:02.730Z,18.34
2018-11-25T03:52:02.506Z,18.34
2018-11-25T03:53:02.791Z,18.34
2018-11-25T03:54:02.528Z,18.34
2018-11-25T03:55:02.903Z,18.34
2018-11-25T03:56:03.092Z,18.35
2018-11-25T03:57:02.535Z,18.33
2018-11-25T03:58:02.494Z,18.36
2018-11-25T03:59:02.550Z,18.33
2018-11-25T04:00:02.917Z,18.32
2018-11-25T04:01:02.453Z,18.34
2018-11-25T04:02:02.467Z,18.34
2018-11-25T04:03:02.367Z,18.3
2018-11-25T04:04:03.032Z,18.33
2018-11-25T04:05:02.829Z,18.32
2018-11-25T04:06:02.699Z,18.33
2018-11-25T04:07:02.418Z,18.32
2018-11-25T04:08:02.483Z,18.3
2018-11-25T04:09:02.468Z,18.3
2018-11-25T04:10:02.753Z,18.3
2018-11-25T04:11:02.342Z,18.3
2018-11-25T04:12:02.798Z,18.29
2018-11-25T04:13:02.579Z,18.32
2018-11-25T04:14:02.466Z,18.3
2018-11-25T04:15:02.432Z,18.27
2018-11-25T04:16:02.426Z,18.29
2018-11-25T04:17:02.548Z,18.29
2018-11-25T04:18:02.452Z,18.29
2018-11-25T04:19:02.404Z,18.29
2018-11-25T04:20:02.372Z,18.29
2018-11-25T04:21:02.457Z,18.28
2018-11-25T04:22:02.810Z,18.28
2018-11-25T04:23:02.368Z,18.28
2018-11-25T04:24:02.687Z,18.28
2018-11-25T04:25:02.462Z,18.29
2018-11-25T04:26:02.819Z,18.28
2018-11-25T04:27:02.426Z,18.29
2018-11-25T04:28:02.429Z,18.28
2018-11-25T04:29:02.784Z,18.29
2018-11-25T04:30:03.013Z,18.27
2018-11-25T04:31:02.614Z,18.26
2018-11-25T04:32:02.499Z,18.26
2018-11-25T04:33:03.397Z,18.26
2018-11-25T04:34:02.713Z,18.26
2018-11-25T04:35:02.324Z,18.26
2018-11-25T04:36:02.623Z,18.24
2018-11-25T04:37:02.467Z,18.26
2018-11-25T04:38:02.833Z,18.25
2018-11-25T04:39:02.557Z,18.27
2018-11-25T04:40:02.883Z,18.25
2018-11-25T04:41:02.442Z,18.26
2018-11-25T04:42:02.633Z,18.26
2018-11-25T04:43:02.677Z,18.25
2018-11-25T04:44:02.427Z,18.25
2018-11-25T04:45:02.418Z,18.26
2018-11-25T04:46:02.378Z,18.26
2018-11-25T04:47:02.558Z,18.26
2018-11-25T04:48:02.890Z,18.28
2018-11-25T04:49:02.822Z,18.28
2018-11-25T04:50:02.879Z,18.28
2018-11-25T04:51:02.859Z,18.28
2018-11-25T04:52:02.222Z,18.3
2018-11-25T04:53:02.527Z,18.29
2018-11-25T04:54:02.241Z,18.3
2018-11-25T04:55:02.305Z,18.3
2018-11-25T04:56:02.628Z,18.32
2018-11-25T04:57:02.398Z,18.32
2018-11-25T04:58:02.832Z,18.35
2018-11-25T04:59:02.344Z,18.36
2018-11-25T05:00:02.805Z,18.37
2018-11-25T05:01:02.848Z,18.38
2018-11-25T05:02:02.708Z,18.37
2018-11-25T05:03:02.599Z,18.36
2018-11-25T05:04:02.431Z,18.4
2018-11-25T05:05:02.484Z,18.4
2018-11-25T05:06:02.504Z,18.42
2018-11-25T05:07:03.401Z,18.43
2018-11-25T05:08:02.593Z,18.43
2018-11-25T05:09:02.921Z,18.43
2018-11-25T05:10:02.346Z,18.46
2018-11-25T05:11:02.772Z,18.48
2018-11-25T05:12:02.423Z,18.5
2018-11-25T05:13:02.644Z,18.49
2018-11-25T05:14:02.656Z,18.53
2018-11-25T05:15:02.438Z,18.52
2018-11-25T05:16:02.753Z,18.53
2018-11-25T05:17:02.367Z,18.55
2018-11-25T05:18:02.660Z,18.57
2018-11-25T05:19:02.584Z,18.58
2018-11-25T05:20:02.527Z,18.58
2018-11-25T05:21:02.754Z,18.59
2018-11-25T05:22:02.459Z,18.63
2018-11-25T05:23:02.641Z,18.62
2018-11-25T05:24:02.374Z,18.64
2018-11-25T05:25:02.472Z,18.66
2018-11-25T05:26:02.328Z,18.66
2018-11-25T05:27:02.546Z,18.67
2018-11-25T05:28:02.295Z,18.68
2018-11-25T05:29:02.735Z,18.69
2018-11-25T05:30:02.971Z,18.7
2018-11-25T05:31:02.493Z,18.71
2018-11-25T05:32:02.556Z,18.73
2018-11-25T05:33:02.460Z,18.73
2018-11-25T05:34:02.655Z,18.71
2018-11-25T05:35:02.380Z,18.76
2018-11-25T05:36:02.532Z,18.77
2018-11-25T05:37:02.537Z,18.79
2018-11-25T05:38:02.428Z,18.78
2018-11-25T05:39:02.624Z,18.81
2018-11-25T05:40:02.412Z,18.8
2018-11-25T05:41:02.586Z,18.81
2018-11-25T05:42:02.792Z,18.84
2018-11-25T05:43:02.796Z,18.82
2018-11-25T05:44:02.661Z,18.84
2018-11-25T05:45:02.567Z,18.85
2018-11-25T05:46:02.353Z,18.86
2018-11-25T05:47:02.730Z,18.87
2018-11-25T05:48:02.312Z,18.89
2018-11-25T05:49:02.469Z,18.88
2018-11-25T05:50:02.671Z,18.88
2018-11-25T05:51:02.487Z,18.93
2018-11-25T05:52:02.438Z,18.94
2018-11-25T05:53:02.430Z,18.93
2018-11-25T05:54:02.832Z,18.95
2018-11-25T05:55:02.374Z,18.95
2018-11-25T05:56:02.459Z,18.95
2018-11-25T05:57:02.650Z,18.96
2018-11-25T05:58:02.393Z,18.98
2018-11-25T05:59:02.514Z,18.99
2018-11-25T06:00:02.340Z,18.97
2018-11-25T06:01:02.435Z,18.99
2018-11-25T06:02:02.872Z,19
2018-11-25T06:03:02.786Z,19.02
2018-11-25T06:04:02.368Z,19.01
2018-11-25T06:05:02.830Z,19.05
2018-11-25T06:06:02.757Z,19.05
2018-11-25T06:07:02.353Z,19.07
2018-11-25T06:08:02.849Z,19.07
2018-11-25T06:09:02.549Z,19.05
2018-11-25T06:10:02.739Z,19.07
2018-11-25T06:11:02.451Z,19.09
2018-11-25T06:12:02.487Z,19.09
2018-11-25T06:13:02.420Z,19.1
2018-11-25T06:14:02.709Z,19.12
2018-11-25T06:15:02.262Z,19.12
2018-11-25T06:16:02.490Z,19.11
2018-11-25T06:17:02.755Z,19.1
2018-11-25T06:18:02.489Z,19.12
2018-11-25T06:19:02.758Z,19.13
2018-11-25T06:20:02.851Z,19.14
2018-11-25T06:21:02.473Z,19.17
2018-11-25T06:22:02.663Z,19.18
2018-11-25T06:23:02.450Z,19.17
2018-11-25T06:24:02.586Z,19.18
2018-11-25T06:25:02.956Z,19.17
2018-11-25T06:26:02.411Z,19.18
2018-11-25T06:27:02.461Z,19.18
2018-11-25T06:28:02.625Z,19.2
2018-11-25T06:29:02.337Z,19.21
2018-11-25T06:30:03.023Z,19.21
2018-11-25T06:31:03.148Z,19.23
2018-11-25T06:32:02.498Z,19.21
2018-11-25T06:33:02.669Z,19.25
2018-11-25T06:34:02.768Z,19.24
2018-11-25T06:35:02.654Z,19.25
2018-11-25T06:36:02.307Z,19.25
2018-11-25T06:37:02.780Z,19.26
2018-11-25T06:38:02.462Z,19.29
2018-11-25T06:39:02.597Z,19.28
2018-11-25T06:40:02.309Z,19.27
2018-11-25T06:41:02.495Z,19.29
2018-11-25T06:42:02.349Z,19.28
2018-11-25T06:43:02.415Z,19.29
2018-11-25T06:44:02.276Z,19.31
2018-11-25T06:45:02.337Z,19.31
2018-11-25T06:46:02.317Z,19.32
2018-11-25T06:47:02.481Z,19.32
2018-11-25T06:48:02.776Z,19.32
2018-11-25T06:49:02.561Z,19.36
2018-11-25T06:50:02.449Z,19.35
2018-11-25T06:51:02.299Z,19.33
2018-11-25T06:52:03.373Z,19.35
2018-11-25T06:53:02.825Z,19.37
2018-11-25T06:54:02.433Z,19.37
2018-11-25T06:55:03.173Z,19.39
2018-11-25T06:56:02.263Z,19.38
2018-11-25T06:57:02.500Z,19.38
2018-11-25T06:58:02.326Z,19.38
2018-11-25T06:59:02.869Z,19.4
2018-11-25T07:00:02.644Z,19.41
2018-11-25T07:01:02.642Z,19.4
2018-11-25T07:02:02.370Z,19.42
2018-11-25T07:03:02.447Z,19.4
2018-11-25T07:04:02.346Z,19.44
2018-11-25T07:05:02.588Z,19.41
2018-11-25T07:06:02.287Z,19.44
2018-11-25T07:07:02.458Z,19.44
2018-11-25T07:08:02.502Z,19.45
2018-11-25T07:09:02.362Z,19.44
2018-11-25T07:10:02.907Z,19.46
2018-11-25T07:11:02.927Z,19.47
2018-11-25T07:12:02.729Z,19.45
2018-11-25T07:13:02.434Z,19.45
2018-11-25T07:14:02.721Z,19.45
2018-11-25T07:15:02.266Z,19.5
2018-11-25T07:16:02.279Z,19.48
2018-11-25T07:17:02.536Z,19.47
2018-11-25T07:18:02.387Z,19.5
2018-11-25T07:19:02.506Z,19.48
2018-11-25T07:20:02.375Z,19.47
2018-11-25T07:21:02.538Z,19.52
2018-11-25T07:22:02.550Z,19.52
2018-11-25T07:23:02.432Z,19.52
2018-11-25T07:24:02.243Z,19.53
2018-11-25T07:25:02.390Z,19.52
2018-11-25T07:26:02.313Z,19.53
2018-11-25T07:27:02.355Z,19.54
2018-11-25T07:28:18.947Z,19.53
2018-11-25T07:29:02.441Z,19.53
2018-11-25T07:30:08.037Z,19.54
2018-11-25T07:31:02.765Z,19.54
2018-11-25T07:32:02.882Z,19.55
2018-11-25T07:33:02.309Z,19.56
2018-11-25T07:34:02.809Z,19.57
2018-11-25T07:35:02.887Z,19.54
2018-11-25T07:36:02.408Z,19.56
2018-11-25T07:37:02.390Z,19.58
2018-11-25T07:38:02.414Z,19.56
2018-11-25T07:39:02.338Z,19.57
2018-11-25T07:40:02.700Z,19.58
2018-11-25T07:41:02.619Z,19.57
2018-11-25T07:42:02.753Z,19.58
2018-11-25T07:43:02.762Z,19.59
2018-11-25T07:44:02.317Z,19.58
2018-11-25T07:45:02.786Z,19.59
2018-11-25T07:46:02.772Z,19.59
2018-11-25T07:47:02.807Z,19.62
2018-11-25T07:48:02.634Z,19.61
2018-11-25T07:49:02.602Z,19.61
2018-11-25T07:50:02.502Z,19.61
2018-11-25T07:51:02.345Z,19.63
2018-11-25T07:52:02.532Z,19.62
2018-11-25T07:53:02.645Z,19.62
2018-11-25T07:54:02.673Z,19.61
2018-11-25T07:55:02.459Z,19.62
2018-11-25T07:56:02.510Z,19.62
2018-11-25T07:57:03.192Z,19.63
2018-11-25T07:58:02.336Z,19.66
2018-11-25T07:59:02.584Z,19.63
2018-11-25T08:00:02.757Z,19.66
2018-11-25T08:01:02.374Z,19.67
2018-11-25T08:02:02.514Z,19.67
2018-11-25T08:03:02.980Z,19.66
2018-11-25T08:04:02.676Z,19.68
2018-11-25T08:05:02.265Z,19.68
2018-11-25T08:06:02.517Z,19.67
2018-11-25T08:07:02.316Z,19.69
2018-11-25T08:08:02.402Z,19.67
2018-11-25T08:09:02.424Z,19.68
2018-11-25T08:10:02.486Z,19.67
2018-11-25T08:11:02.746Z,19.69
2018-11-25T08:12:02.763Z,19.71
2018-11-25T08:13:02.612Z,19.71
2018-11-25T08:14:02.826Z,19.71
2018-11-25T08:15:03.080Z,19.71
2018-11-25T08:16:02.497Z,19.69
2018-11-25T08:17:02.343Z,19.72
2018-11-25T08:18:02.418Z,19.73
2018-11-25T08:19:02.215Z,19.71
2018-11-25T08:20:02.478Z,19.71
2018-11-25T08:21:02.814Z,19.74
2018-11-25T08:22:02.608Z,19.73
2018-11-25T08:23:02.739Z,19.75
2018-11-25T08:24:02.265Z,19.73
2018-11-25T08:25:02.449Z,19.75
2018-11-25T08:26:02.341Z,19.74
2018-11-25T08:27:02.222Z,19.73
2018-11-25T08:28:02.550Z,19.74
2018-11-25T08:29:02.799Z,19.75
2018-11-25T08:30:02.804Z,19.74
2018-11-25T08:31:02.609Z,19.74
2018-11-25T08:32:02.817Z,19.77
2018-11-25T08:33:02.279Z,19.75
2018-11-25T08:34:02.713Z,19.75
2018-11-25T08:35:02.451Z,19.77
2018-11-25T08:36:02.765Z,19.81
2018-11-25T08:37:02.550Z,19.8
2018-11-25T08:38:02.371Z,19.79
2018-11-25T08:39:02.482Z,19.82
2018-11-25T08:40:02.383Z,19.82
2018-11-25T08:41:02.748Z,19.81
2018-11-25T08:42:02.288Z,19.81
2018-11-25T08:43:02.757Z,19.81
2018-11-25T08:44:02.266Z,19.82
2018-11-25T08:45:02.682Z,19.81
2018-11-25T08:46:02.271Z,19.82
2018-11-25T08:47:03.007Z,19.82
2018-11-25T08:48:02.692Z,19.82
2018-11-25T08:49:02.215Z,19.81
2018-11-25T08:50:02.431Z,19.82
2018-11-25T08:51:02.305Z,19.82
2018-11-25T08:52:02.417Z,19.83
2018-11-25T08:53:02.663Z,19.83
2018-11-25T08:54:02.421Z,19.85
2018-11-25T08:55:02.442Z,19.84
2018-11-25T08:56:02.654Z,19.84
2018-11-25T08:57:02.440Z,19.83
2018-11-25T08:58:02.471Z,19.83
2018-11-25T08:59:02.511Z,19.83
2018-11-25T09:00:02.356Z,19.85
2018-11-25T09:01:02.423Z,19.85
2018-11-25T09:02:02.584Z,19.83
2018-11-25T09:03:02.801Z,19.86
2018-11-25T09:04:02.291Z,19.85
2018-11-25T09:05:02.417Z,19.84
2018-11-25T09:06:02.285Z,19.86
2018-11-25T09:07:02.318Z,19.84
2018-11-25T09:08:02.497Z,19.85
2018-11-25T09:09:02.277Z,19.86
2018-11-25T09:10:02.441Z,19.86
2018-11-25T09:11:02.325Z,19.84
2018-11-25T09:12:02.424Z,19.86
2018-11-25T09:13:02.839Z,19.86
2018-11-25T09:14:02.346Z,19.86
2018-11-25T09:15:02.235Z,19.86
2018-11-25T09:16:02.287Z,19.85
2018-11-25T09:17:02.522Z,19.86
2018-11-25T09:18:02.388Z,19.88
2018-11-25T09:19:02.425Z,19.89
2018-11-25T09:20:02.411Z,19.89
2018-11-25T09:21:03.226Z,19.89
2018-11-25T09:22:02.521Z,19.89
2018-11-25T09:23:02.411Z,19.89
2018-11-25T09:24:02.274Z,19.9
2018-11-25T09:25:02.191Z,19.89
2018-11-25T09:26:02.483Z,19.89
2018-11-25T09:27:02.271Z,19.89
2018-11-25T09:28:02.444Z,19.91
2018-11-25T09:29:02.362Z,19.89
2018-11-25T09:30:02.727Z,19.91
2018-11-25T09:31:02.423Z,19.91
2018-11-25T09:32:02.484Z,19.89
2018-11-25T09:33:02.393Z,19.9
2018-11-25T09:34:02.249Z,19.91
2018-11-25T09:35:02.696Z,19.92
2018-11-25T09:36:02.327Z,19.94
2018-11-25T09:37:02.367Z,19.92
2018-11-25T09:38:02.409Z,19.94
2018-11-25T09:39:02.403Z,19.94
2018-11-25T09:40:02.528Z,19.96
2018-11-25T09:41:02.396Z,19.94
2018-11-25T09:42:02.485Z,19.92
2018-11-25T09:43:02.807Z,19.97
2018-11-25T09:44:02.889Z,19.97
2018-11-25T09:45:02.448Z,19.98
2018-11-25T09:46:02.537Z,20
2018-11-25T09:47:02.163Z,20
2018-11-25T09:48:02.321Z,20.01
2018-11-25T09:49:02.842Z,20.02
2018-11-25T09:50:02.315Z,20.01
2018-11-25T09:51:03.057Z,20.01
2018-11-25T09:52:03.312Z,20.04
2018-11-25T09:53:02.722Z,20.04
2018-11-25T09:54:02.198Z,20.04
2018-11-25T09:55:02.654Z,20.05
2018-11-25T09:56:02.176Z,20.05
2018-11-25T09:57:02.389Z,20.09
2018-11-25T09:58:02.917Z,20.11
2018-11-25T09:59:02.646Z,20.07
2018-11-25T10:00:02.811Z,20.09
2018-11-25T10:01:02.202Z,20.09
2018-11-25T10:02:02.417Z,20.11
2018-11-25T10:03:02.577Z,20.13
2018-11-25T10:04:02.414Z,20.13
2018-11-25T10:05:02.742Z,20.12
2018-11-25T10:06:02.620Z,20.13
2018-11-25T10:07:02.814Z,20.14
2018-11-25T10:08:02.545Z,20.14
2018-11-25T10:09:02.470Z,20.16
2018-11-25T10:10:02.206Z,20.18
2018-11-25T10:11:02.769Z,20.18
2018-11-25T10:12:02.497Z,20.17
2018-11-25T10:13:02.821Z,20.16
2018-11-25T10:14:02.409Z,20.16
2018-11-25T10:15:02.439Z,20.17
2018-11-25T10:16:02.862Z,20.2
2018-11-25T10:17:02.763Z,20.2
2018-11-25T10:18:02.636Z,20.21
2018-11-25T10:19:02.764Z,20.22
2018-11-25T10:20:02.402Z,20.2
2018-11-25T10:21:02.295Z,20.21
2018-11-25T10:22:02.742Z,20.22
2018-11-25T10:23:02.750Z,20.21
2018-11-25T10:24:02.202Z,20.25
2018-11-25T10:25:02.344Z,20.25
2018-11-25T10:26:02.262Z,20.26
2018-11-25T10:27:02.374Z,20.25
2018-11-25T10:28:02.419Z,20.26
2018-11-25T10:29:02.503Z,20.25
2018-11-25T10:30:02.188Z,20.27
2018-11-25T10:31:02.436Z,20.27
2018-11-25T10:32:02.496Z,20.25
2018-11-25T10:33:03.207Z,20.27
2018-11-25T10:34:02.286Z,20.28
2018-11-25T10:35:02.312Z,20.25
2018-11-25T10:36:04.839Z,20.29
2018-11-25T10:37:02.211Z,20.31
2018-11-25T10:38:02.434Z,20.32
2018-11-25T10:39:02.225Z,20.34
2018-11-25T10:40:02.383Z,20.35
2018-11-25T10:41:02.456Z,20.33
2018-11-25T10:42:02.309Z,20.34
2018-11-25T10:43:02.490Z,20.34
2018-11-25T10:44:02.720Z,20.35
2018-11-25T10:45:02.415Z,20.34
2018-11-25T10:46:02.512Z,20.36
2018-11-25T10:47:02.291Z,20.4
2018-11-25T10:48:02.991Z,20.41
2018-11-25T10:49:02.364Z,20.4
2018-11-25T10:50:02.353Z,20.4
2018-11-25T10:51:02.672Z,20.45
2018-11-25T10:52:02.427Z,20.43
2018-11-25T10:53:02.883Z,20.42
2018-11-25T10:54:02.910Z,20.42
2018-11-25T10:55:02.327Z,20.43
2018-11-25T10:56:03.175Z,20.42
2018-11-25T10:57:02.932Z,20.45
2018-11-25T10:58:02.630Z,20.47
2018-11-25T10:59:02.833Z,20.47
2018-11-25T11:00:02.537Z,20.47
2018-11-25T11:01:02.672Z,20.45
2018-11-25T11:02:02.294Z,20.47
2018-11-25T11:03:02.373Z,20.46
2018-11-25T11:04:02.459Z,20.45
2018-11-25T11:05:02.699Z,20.46
2018-11-25T11:06:02.674Z,20.47
2018-11-25T11:07:02.417Z,20.47
2018-11-25T11:08:02.849Z,20.47
2018-11-25T11:09:02.465Z,20.46
2018-11-25T11:10:02.837Z,20.46
2018-11-25T11:11:02.232Z,20.48
2018-11-25T11:12:02.510Z,20.47
2018-11-25T11:13:02.531Z,20.48
2018-11-25T11:14:02.739Z,20.51
2018-11-25T11:15:02.330Z,20.49
2018-11-25T11:16:02.346Z,20.5
2018-11-25T11:17:02.393Z,20.48
2018-11-25T11:18:02.869Z,20.5
2018-11-25T11:19:02.289Z,20.51
2018-11-25T11:20:02.487Z,20.5
2018-11-25T11:21:02.578Z,20.51
2018-11-25T11:22:03.100Z,20.51
2018-11-25T11:23:02.488Z,20.51
2018-11-25T11:24:02.397Z,20.53
2018-11-25T11:25:02.100Z,20.49
2018-11-25T11:26:07.402Z,20.53
2018-11-25T11:27:02.565Z,20.53
2018-11-25T11:28:03.075Z,20.57
2018-11-25T11:29:03.522Z,20.51
2018-11-25T11:30:04.360Z,20.57
2018-11-25T11:31:04.170Z,20.57
2018-11-25T11:32:02.869Z,20.57
2018-11-25T11:33:02.649Z,20.56
2018-11-25T11:34:02.713Z,20.56
2018-11-25T11:35:02.673Z,20.57
2018-11-25T11:36:02.321Z,20.57
2018-11-25T11:37:02.493Z,20.57
2018-11-25T11:38:02.411Z,20.59
2018-11-25T11:39:02.594Z,20.57
2018-11-25T11:40:02.733Z,20.59
2018-11-25T11:41:02.443Z,20.61
2018-11-25T11:42:02.322Z,20.62
2018-11-25T11:43:03.273Z,20.62
2018-11-25T11:44:02.378Z,20.65
2018-11-25T11:45:02.581Z,20.65
2018-11-25T11:46:02.883Z,20.63
2018-11-25T11:47:02.629Z,20.64
2018-11-25T11:48:05.368Z,20.65
2018-11-25T11:49:02.583Z,20.66
2018-11-25T11:50:02.692Z,20.63
2018-11-25T11:51:02.446Z,20.65
2018-11-25T11:52:02.523Z,20.64
2018-11-25T11:53:02.298Z,20.69
2018-11-25T11:54:02.297Z,20.68
2018-11-25T11:55:02.486Z,20.68
2018-11-25T11:56:02.120Z,20.66
2018-11-25T11:57:02.184Z,20.69
2018-11-25T11:58:02.405Z,20.66
2018-11-25T11:59:02.198Z,20.68
2018-11-25T12:00:02.337Z,20.66
2018-11-25T12:01:02.102Z,20.68
2018-11-25T12:02:02.256Z,20.66
2018-11-25T12:03:02.063Z,20.7
2018-11-25T12:04:02.256Z,20.69
2018-11-25T12:05:02.117Z,20.7
2018-11-25T12:06:02.082Z,20.7
2018-11-25T12:07:02.496Z,20.72
2018-11-25T12:08:02.374Z,20.71
2018-11-25T12:09:02.509Z,20.69
2018-11-25T12:10:02.535Z,20.69
2018-11-25T12:11:02.388Z,20.71
2018-11-25T12:12:02.185Z,20.68
2018-11-25T12:13:02.295Z,20.69
2018-11-25T12:14:02.386Z,20.71
2018-11-25T12:15:02.502Z,20.66
2018-11-25T12:16:02.284Z,20.66
2018-11-25T12:17:02.360Z,20.69
2018-11-25T12:18:02.227Z,20.66
2018-11-25T12:19:02.445Z,20.65
2018-11-25T12:20:02.459Z,20.65
2018-11-25T12:21:02.750Z,20.64
2018-11-25T12:22:02.467Z,20.64
2018-11-25T12:23:02.902Z,20.64
2018-11-25T12:24:02.904Z,20.64
2018-11-25T12:25:02.419Z,20.63
2018-11-25T12:26:02.509Z,20.66
2018-11-25T12:27:02.320Z,20.65
2018-11-25T12:28:02.455Z,20.66
2018-11-25T12:29:02.758Z,20.64
2018-11-25T12:30:02.218Z,20.66
2018-11-25T12:31:02.213Z,20.64
2018-11-25T12:32:02.497Z,20.66
2018-11-25T12:33:02.391Z,20.65
2018-11-25T12:34:03.681Z,20.66
2018-11-25T12:35:02.229Z,20.66
2018-11-25T12:36:02.314Z,20.65
2018-11-25T12:37:02.281Z,20.65
2018-11-25T12:38:02.277Z,20.65
2018-11-25T12:39:02.686Z,20.65
2018-11-25T12:40:02.771Z,20.63
2018-11-25T12:41:02.731Z,20.64
2018-11-25T12:42:02.564Z,20.63
2018-11-25T12:43:02.876Z,20.63
2018-11-25T12:44:02.520Z,20.63
2018-11-25T12:45:02.689Z,20.63
2018-11-25T12:46:03.322Z,20.64
2018-11-25T12:47:02.284Z,20.62
2018-11-25T12:48:02.296Z,20.63
2018-11-25T12:49:02.561Z,20.63
2018-11-25T12:50:02.475Z,20.64
2018-11-25T12:51:02.212Z,20.63
2018-11-25T12:52:02.460Z,20.61
2018-11-25T12:53:02.281Z,20.61
2018-11-25T12:54:02.577Z,20.62
2018-11-25T12:55:02.295Z,20.62